Lewisville, Arkansas
Current Conditions -  °F | °C
As of 2:53 PM on Thursday 27 Nov 2014 (Local Time) from KTXK Reporting Station
Clear Clear  
Wind Chill: 52°   Ceiling: Unl
Heat Index: 52°   Visibility: 10mi
Dew Point: 27°   Wind: 5mph
Humidity: 38%   Direction: 110°ESE
Pressure: 30.45"   Gusts: NA
Location:  33.36°N, 93.58°W
Report Text: KTXK 272053Z 11004KT 10SM CLR 11/M03 A3045 RMK AO2 SLP312 T01111028 56025
Loading
Personal Weather Stations






























Interactive Weather Map New forecast layout! Learn more

10-Day Weather Forecast

Advertisements
Track Severe Weather on mobile